Northmoor, Missouri
Current Conditions -  °F | °C
As of 1:54 PM on Wednesday 17 Dec 2014 (Local Time) from KMKC Reporting Station
Overcast Overcast  
Wind Chill: 31°   Ceiling: 9000
Heat Index: 31°   Visibility: 10mi
Dew Point: 19°   Wind: 3mph
Humidity: 61%   Direction: 340°NNW
Pressure: 30.28"   Gusts: NA
Location:  39.2125°N, 94.6296°W
Report Text: KMKC 171954Z 34003KT 10SM SCT075 OVC090 M01/M07 A3028 RMK AO2 SLP261 T10061072
Loading
Personal Weather Stations






























Interactive Weather Map New forecast layout! Learn more

10-Day Weather Forecast

Advertisements
Track Severe Weather on mobile